sensor_id;sensor_type;location;lat;lon;timestamp;temperature;humidity
23755;DHT22;12057;52.042;6.830;2023-05-16T00:05:00;10.60;99.90
23755;DHT22;12057;52.042;6.830;2023-05-16T00:10:01;10.60;99.90
23755;DHT22;12057;52.042;6.830;2023-05-16T00:15:03;10.60;99.90
23755;DHT22;12057;52.042;6.830;2023-05-16T00:20:08;10.60;99.90
23755;DHT22;12057;52.042;6.830;2023-05-16T00:25:13;10.60;99.90
23755;DHT22;12057;52.042;6.830;2023-05-16T00:30:14;10.50;99.90
23755;DHT22;12057;52.042;6.830;2023-05-16T00:35:15;10.50;99.90
23755;DHT22;12057;52.042;6.830;2023-05-16T00:40:16;10.60;99.90
23755;DHT22;12057;52.042;6.830;2023-05-16T00:45:17;10.50;99.90
23755;DHT22;12057;52.042;6.830;2023-05-16T00:50:18;10.60;99.90
23755;DHT22;12057;52.042;6.830;2023-05-16T00:55:19;10.50;99.90
23755;DHT22;12057;52.042;6.830;2023-05-16T01:00:20;10.50;99.90
23755;DHT22;12057;52.042;6.830;2023-05-16T01:05:21;10.40;99.90
23755;DHT22;12057;52.042;6.830;2023-05-16T01:10:22;10.40;99.90
23755;DHT22;12057;52.042;6.830;2023-05-16T01:15:27;10.40;99.90
23755;DHT22;12057;52.042;6.830;2023-05-16T01:30:45;10.20;99.90
23755;DHT22;12057;52.042;6.830;2023-05-16T01:35:54;10.30;99.90
23755;DHT22;12057;52.042;6.830;2023-05-16T01:46:43;9.90;99.90
23755;DHT22;12057;52.042;6.830;2023-05-16T01:52:04;9.80;99.90
23755;DHT22;12057;52.042;6.830;2023-05-16T01:57:06;9.80;99.90
23755;DHT22;12057;52.042;6.830;2023-05-16T02:02:08;9.70;99.90
23755;DHT22;12057;52.042;6.830;2023-05-16T02:07:09;9.60;99.90
23755;DHT22;12057;52.042;6.830;2023-05-16T02:12:10;9.50;99.90
23755;DHT22;12057;52.042;6.830;2023-05-16T02:17:10;9.40;99.90
23755;DHT22;12057;52.042;6.830;2023-05-16T02:22:11;9.40;99.90
23755;DHT22;12057;52.042;6.830;2023-05-16T02:27:12;9.40;99.90
23755;DHT22;12057;52.042;6.830;2023-05-16T02:32:13;9.40;99.90
23755;DHT22;12057;52.042;6.830;2023-05-16T02:37:13;9.30;99.90
23755;DHT22;12057;52.042;6.830;2023-05-16T02:42:14;9.10;99.90
23755;DHT22;12057;52.042;6.830;2023-05-16T02:47:15;9.00;99.90
23755;DHT22;12057;52.042;6.830;2023-05-16T02:52:16;8.90;99.90
23755;DHT22;12057;52.042;6.830;2023-05-16T02:57:16;8.90;99.90
23755;DHT22;12057;52.042;6.830;2023-05-16T03:02:17;9.00;99.90
23755;DHT22;12057;52.042;6.830;2023-05-16T03:07:18;8.90;99.90
23755;DHT22;12057;52.042;6.830;2023-05-16T03:12:19;8.90;99.90
23755;DHT22;12057;52.042;6.830;2023-05-16T03:17:19;8.80;99.90
23755;DHT22;12057;52.042;6.830;2023-05-16T03:22:20;8.80;99.90
23755;DHT22;12057;52.042;6.830;2023-05-16T03:27:22;8.80;99.90
23755;DHT22;12057;52.042;6.830;2023-05-16T03:32:22;8.80;99.90
23755;DHT22;12057;52.042;6.830;2023-05-16T03:37:23;8.80;99.90
23755;DHT22;12057;52.042;6.830;2023-05-16T03:42:24;8.80;99.90
23755;DHT22;12057;52.042;6.830;2023-05-16T03:47:25;8.70;99.90
23755;DHT22;12057;52.042;6.830;2023-05-16T03:52:26;8.60;99.90
23755;DHT22;12057;52.042;6.830;2023-05-16T03:57:28;8.60;99.90
23755;DHT22;12057;52.042;6.830;2023-05-16T04:02:29;8.50;99.90
23755;DHT22;12057;52.042;6.830;2023-05-16T04:07:30;8.50;99.90
23755;DHT22;12057;52.042;6.830;2023-05-16T04:12:30;8.50;99.90
23755;DHT22;12057;52.042;6.830;2023-05-16T04:17:32;8.40;99.90
23755;DHT22;12057;52.042;6.830;2023-05-16T04:22:32;8.50;99.90
23755;DHT22;12057;52.042;6.830;2023-05-16T04:27:33;8.50;99.90
23755;DHT22;12057;52.042;6.830;2023-05-16T04:32:34;8.50;99.90
23755;DHT22;12057;52.042;6.830;2023-05-16T04:37:36;8.50;99.90
23755;DHT22;12057;52.042;6.830;2023-05-16T04:42:37;8.40;99.90
23755;DHT22;12057;52.042;6.830;2023-05-16T04:47:38;8.50;99.90
23755;DHT22;12057;52.042;6.830;2023-05-16T04:52:38;8.50;99.90
23755;DHT22;12057;52.042;6.830;2023-05-16T04:57:40;8.50;99.90
23755;DHT22;12057;52.042;6.830;2023-05-16T05:02:40;8.50;99.90
23755;DHT22;12057;52.042;6.830;2023-05-16T05:07:41;8.50;99.90
23755;DHT22;12057;52.042;6.830;2023-05-16T05:12:42;8.60;99.90
23755;DHT22;12057;52.042;6.830;2023-05-16T05:17:43;8.60;99.90
23755;DHT22;12057;52.042;6.830;2023-05-16T05:22:44;8.80;99.90
23755;DHT22;12057;52.042;6.830;2023-05-16T05:27:45;8.80;99.90
23755;DHT22;12057;52.042;6.830;2023-05-16T05:32:45;8.80;99.90
23755;DHT22;12057;52.042;6.830;2023-05-16T05:37:46;8.90;99.90
23755;DHT22;12057;52.042;6.830;2023-05-16T05:42:47;9.00;99.90
23755;DHT22;12057;52.042;6.830;2023-05-16T05:47:48;9.10;99.90
23755;DHT22;12057;52.042;6.830;2023-05-16T05:52:48;9.30;99.90
23755;DHT22;12057;52.042;6.830;2023-05-16T05:57:49;9.40;99.90
23755;DHT22;12057;52.042;6.830;2023-05-16T06:02:50;9.60;99.90
23755;DHT22;12057;52.042;6.830;2023-05-16T06:07:51;9.70;99.90
23755;DHT22;12057;52.042;6.830;2023-05-16T06:12:52;9.90;99.90
23755;DHT22;12057;52.042;6.830;2023-05-16T06:18:02;9.90;99.90
23755;DHT22;12057;52.042;6.830;2023-05-16T06:23:03;10.10;99.90
23755;DHT22;12057;52.042;6.830;2023-05-16T06:28:04;10.40;99.90
23755;DHT22;12057;52.042;6.830;2023-05-16T06:33:04;10.60;99.90
23755;DHT22;12057;52.042;6.830;2023-05-16T06:38:05;10.70;99.90
23755;DHT22;12057;52.042;6.830;2023-05-16T06:43:09;10.90;99.90
23755;DHT22;12057;52.042;6.830;2023-05-16T06:48:13;11.00;99.90
23755;DHT22;12057;52.042;6.830;2023-05-16T06:53:14;11.00;99.90
23755;DHT22;12057;52.042;6.830;2023-05-16T07:03:43;11.50;99.90
23755;DHT22;12057;52.042;6.830;2023-05-16T07:08:44;11.60;99.90
23755;DHT22;12057;52.042;6.830;2023-05-16T07:13:45;11.70;99.90
23755;DHT22;12057;52.042;6.830;2023-05-16T07:18:46;11.60;99.90
23755;DHT22;12057;52.042;6.830;2023-05-16T07:23:47;11.40;99.90
23755;DHT22;12057;52.042;6.830;2023-05-16T07:28:49;11.50;99.90
23755;DHT22;12057;52.042;6.830;2023-05-16T07:33:49;11.90;99.90
23755;DHT22;12057;52.042;6.830;2023-05-16T07:38:50;12.00;99.90
23755;DHT22;12057;52.042;6.830;2023-05-16T07:43:51;12.50;99.90
23755;DHT22;12057;52.042;6.830;2023-05-16T07:48:52;12.90;99.90
23755;DHT22;12057;52.042;6.830;2023-05-16T07:53:53;12.90;99.90
23755;DHT22;12057;52.042;6.830;2023-05-16T07:58:54;13.50;99.90
23755;DHT22;12057;52.042;6.830;2023-05-16T08:03:55;13.60;99.90
23755;DHT22;12057;52.042;6.830;2023-05-16T08:08:55;13.40;99.90
23755;DHT22;12057;52.042;6.830;2023-05-16T08:13:56;13.50;99.90
23755;DHT22;12057;52.042;6.830;2023-05-16T08:18:57;13.80;99.90
23755;DHT22;12057;52.042;6.830;2023-05-16T08:23:57;14.40;99.90
23755;DHT22;12057;52.042;6.830;2023-05-16T08:28:58;14.40;99.90
23755;DHT22;12057;52.042;6.830;2023-05-16T08:33:59;14.60;99.90
23755;DHT22;12057;52.042;6.830;2023-05-16T08:39:01;13.80;99.90
23755;DHT22;12057;52.042;6.830;2023-05-16T08:44:02;13.80;99.90
23755;DHT22;12057;52.042;6.830;2023-05-16T08:49:04;13.80;99.90
23755;DHT22;12057;52.042;6.830;2023-05-16T08:54:11;13.80;99.90
23755;DHT22;12057;52.042;6.830;2023-05-16T08:59:12;13.80;99.90
23755;DHT22;12057;52.042;6.830;2023-05-16T09:04:15;13.70;99.90
23755;DHT22;12057;52.042;6.830;2023-05-16T09:09:16;13.70;99.90
23755;DHT22;12057;52.042;6.830;2023-05-16T09:14:16;14.20;99.90
23755;DHT22;12057;52.042;6.830;2023-05-16T09:19:17;14.60;99.90
23755;DHT22;12057;52.042;6.830;2023-05-16T09:24:24;14.70;99.90
23755;DHT22;12057;52.042;6.830;2023-05-16T09:35:30;15.50;99.90
23755;DHT22;12057;52.042;6.830;2023-05-16T09:40:31;16.00;99.90
23755;DHT22;12057;52.042;6.830;2023-05-16T09:45:33;16.00;99.90
23755;DHT22;12057;52.042;6.830;2023-05-16T09:50:40;16.00;99.90
23755;DHT22;12057;52.042;6.830;2023-05-16T10:01:48;17.20;99.90
23755;DHT22;12057;52.042;6.830;2023-05-16T10:06:50;16.70;99.90
23755;DHT22;12057;52.042;6.830;2023-05-16T10:11:54;15.70;99.90
23755;DHT22;12057;52.042;6.830;2023-05-16T10:16:55;15.10;99.90
23755;DHT22;12057;52.042;6.830;2023-05-16T10:21:59;14.70;99.90
23755;DHT22;12057;52.042;6.830;2023-05-16T10:27:03;15.30;99.90
23755;DHT22;12057;52.042;6.830;2023-05-16T10:32:05;16.10;99.90
23755;DHT22;12057;52.042;6.830;2023-05-16T10:37:07;16.60;98.10
23755;DHT22;12057;52.042;6.830;2023-05-16T10:42:08;16.60;99.90
23755;DHT22;12057;52.042;6.830;2023-05-16T10:47:09;16.70;99.90
23755;DHT22;12057;52.042;6.830;2023-05-16T10:52:11;16.10;99.30
23755;DHT22;12057;52.042;6.830;2023-05-16T10:57:18;15.80;99.90
23755;DHT22;12057;52.042;6.830;2023-05-16T11:02:31;16.50;99.90
23755;DHT22;12057;52.042;6.830;2023-05-16T11:07:34;17.20;96.40
23755;DHT22;12057;52.042;6.830;2023-05-16T11:17:38;17.80;93.30
23755;DHT22;12057;52.042;6.830;2023-05-16T11:22:40;17.80;94.50
23755;DHT22;12057;52.042;6.830;2023-05-16T11:27:46;17.60;93.30
23755;DHT22;12057;52.042;6.830;2023-05-16T11:32:47;18.00;94.90
23755;DHT22;12057;52.042;6.830;2023-05-16T11:37:50;18.60;91.80
23755;DHT22;12057;52.042;6.830;2023-05-16T11:42:50;18.80;90.30
23755;DHT22;12057;52.042;6.830;2023-05-16T11:47:52;18.80;86.30
23755;DHT22;12057;52.042;6.830;2023-05-16T11:52:53;17.80;88.70
23755;DHT22;12057;52.042;6.830;2023-05-16T11:57:57;17.70;89.20
23755;DHT22;12057;52.042;6.830;2023-05-16T12:03:02;17.30;90.70
23755;DHT22;12057;52.042;6.830;2023-05-16T12:08:04;16.70;91.10
23755;DHT22;12057;52.042;6.830;2023-05-16T12:13:06;16.40;91.40
23755;DHT22;12057;52.042;6.830;2023-05-16T12:18:07;16.20;92.00
23755;DHT22;12057;52.042;6.830;2023-05-16T12:23:11;16.70;91.40
23755;DHT22;12057;52.042;6.830;2023-05-16T12:28:13;17.20;92.00
23755;DHT22;12057;52.042;6.830;2023-05-16T12:33:15;17.70;93.00
23755;DHT22;12057;52.042;6.830;2023-05-16T12:38:16;17.10;90.40
23755;DHT22;12057;52.042;6.830;2023-05-16T12:43:20;16.40;90.40
23755;DHT22;12057;52.042;6.830;2023-05-16T12:48:22;15.70;92.10
23755;DHT22;12057;52.042;6.830;2023-05-16T12:53:23;16.00;92.90
23755;DHT22;12057;52.042;6.830;2023-05-16T12:58:24;15.90;92.20
23755;DHT22;12057;52.042;6.830;2023-05-16T13:03:26;15.70;92.60
23755;DHT22;12057;52.042;6.830;2023-05-16T13:08:28;15.60;93.40
23755;DHT22;12057;52.042;6.830;2023-05-16T13:13:29;15.50;91.50
23755;DHT22;12057;52.042;6.830;2023-05-16T13:18:29;16.30;91.90
23755;DHT22;12057;52.042;6.830;2023-05-16T13:23:31;16.10;88.30
23755;DHT22;12057;52.042;6.830;2023-05-16T13:28:32;15.70;89.70
23755;DHT22;12057;52.042;6.830;2023-05-16T13:33:33;15.10;92.30
23755;DHT22;12057;52.042;6.830;2023-05-16T13:38:35;14.50;96.10
23755;DHT22;12057;52.042;6.830;2023-05-16T13:43:36;14.20;98.70
23755;DHT22;12057;52.042;6.830;2023-05-16T13:48:37;14.30;99.80
23755;DHT22;12057;52.042;6.830;2023-05-16T13:53:41;14.20;99.80
23755;DHT22;12057;52.042;6.830;2023-05-16T13:58:42;14.30;99.50
23755;DHT22;12057;52.042;6.830;2023-05-16T14:03:43;14.40;99.90
23755;DHT22;12057;52.042;6.830;2023-05-16T14:08:43;14.50;99.30
23755;DHT22;12057;52.042;6.830;2023-05-16T14:13:47;14.50;99.90
23755;DHT22;12057;52.042;6.830;2023-05-16T14:18:48;14.50;99.30
23755;DHT22;12057;52.042;6.830;2023-05-16T14:23:49;14.60;99.90
23755;DHT22;12057;52.042;6.830;2023-05-16T14:28:50;14.80;99.90
23755;DHT22;12057;52.042;6.830;2023-05-16T14:33:51;14.90;99.90
23755;DHT22;12057;52.042;6.830;2023-05-16T14:38:52;15.20;99.90
23755;DHT22;12057;52.042;6.830;2023-05-16T14:43:53;15.20;99.10
23755;DHT22;12057;52.042;6.830;2023-05-16T14:48:54;15.10;99.30
23755;DHT22;12057;52.042;6.830;2023-05-16T14:53:55;15.10;99.90
23755;DHT22;12057;52.042;6.830;2023-05-16T14:58:56;15.20;99.90
23755;DHT22;12057;52.042;6.830;2023-05-16T15:03:57;15.00;99.90
23755;DHT22;12057;52.042;6.830;2023-05-16T15:08:58;15.00;99.90
23755;DHT22;12057;52.042;6.830;2023-05-16T15:13:58;14.70;98.20
23755;DHT22;12057;52.042;6.830;2023-05-16T15:19:00;14.70;98.90
23755;DHT22;12057;52.042;6.830;2023-05-16T15:24:00;14.60;99.60
23755;DHT22;12057;52.042;6.830;2023-05-16T15:29:01;14.60;99.20
23755;DHT22;12057;52.042;6.830;2023-05-16T15:34:02;14.30;99.90
23755;DHT22;12057;52.042;6.830;2023-05-16T15:39:03;14.20;99.90
23755;DHT22;12057;52.042;6.830;2023-05-16T15:44:04;14.10;99.90
23755;DHT22;12057;52.042;6.830;2023-05-16T15:49:11;14.10;99.90
23755;DHT22;12057;52.042;6.830;2023-05-16T15:54:15;14.10;99.90
23755;DHT22;12057;52.042;6.830;2023-05-16T15:59:16;14.20;99.90
23755;DHT22;12057;52.042;6.830;2023-05-16T16:04:17;14.20;99.90
23755;DHT22;12057;52.042;6.830;2023-05-16T16:09:18;14.10;99.90
23755;DHT22;12057;52.042;6.830;2023-05-16T16:14:18;14.00;99.90
23755;DHT22;12057;52.042;6.830;2023-05-16T16:19:19;13.90;99.90
23755;DHT22;12057;52.042;6.830;2023-05-16T16:24:20;13.70;99.90
23755;DHT22;12057;52.042;6.830;2023-05-16T16:29:21;13.70;99.90
23755;DHT22;12057;52.042;6.830;2023-05-16T16:34:21;13.60;99.90
23755;DHT22;12057;52.042;6.830;2023-05-16T16:39:22;13.70;99.90
23755;DHT22;12057;52.042;6.830;2023-05-16T16:44:25;13.60;99.90
23755;DHT22;12057;52.042;6.830;2023-05-16T16:49:29;13.50;99.90
23755;DHT22;12057;52.042;6.830;2023-05-16T16:54:30;13.30;99.90
23755;DHT22;12057;52.042;6.830;2023-05-16T16:59:31;13.20;99.90
23755;DHT22;12057;52.042;6.830;2023-05-16T17:04:32;13.30;99.90
23755;DHT22;12057;52.042;6.830;2023-05-16T17:09:40;13.40;99.90
23755;DHT22;12057;52.042;6.830;2023-05-16T17:14:42;13.60;99.90
23755;DHT22;12057;52.042;6.830;2023-05-16T17:19:45;13.50;99.90
23755;DHT22;12057;52.042;6.830;2023-05-16T17:24:46;13.60;99.90
23755;DHT22;12057;52.042;6.830;2023-05-16T17:29:47;13.70;99.90
23755;DHT22;12057;52.042;6.830;2023-05-16T17:34:47;13.70;99.90
23755;DHT22;12057;52.042;6.830;2023-05-16T17:39:49;13.60;99.90
23755;DHT22;12057;52.042;6.830;2023-05-16T17:44:50;13.60;99.90
23755;DHT22;12057;52.042;6.830;2023-05-16T17:49:51;13.50;99.90
23755;DHT22;12057;52.042;6.830;2023-05-16T17:54:52;13.20;99.90
23755;DHT22;12057;52.042;6.830;2023-05-16T17:59:53;13.10;99.90
23755;DHT22;12057;52.042;6.830;2023-05-16T18:04:53;13.00;99.90
23755;DHT22;12057;52.042;6.830;2023-05-16T18:09:55;13.10;99.90
23755;DHT22;12057;52.042;6.830;2023-05-16T18:14:59;13.20;99.90
23755;DHT22;12057;52.042;6.830;2023-05-16T18:19:59;13.20;99.90
23755;DHT22;12057;52.042;6.830;2023-05-16T18:25:09;13.20;99.90
23755;DHT22;12057;52.042;6.830;2023-05-16T18:30:11;13.20;99.90
23755;DHT22;12057;52.042;6.830;2023-05-16T18:35:12;13.20;99.90
23755;DHT22;12057;52.042;6.830;2023-05-16T18:40:13;12.70;99.90
23755;DHT22;12057;52.042;6.830;2023-05-16T18:45:14;12.90;99.90
23755;DHT22;12057;52.042;6.830;2023-05-16T18:50:18;12.80;99.90
23755;DHT22;12057;52.042;6.830;2023-05-16T18:55:18;12.70;99.90
23755;DHT22;12057;52.042;6.830;2023-05-16T19:00:19;12.60;99.90
23755;DHT22;12057;52.042;6.830;2023-05-16T19:05:20;12.70;99.90
23755;DHT22;12057;52.042;6.830;2023-05-16T19:10:21;12.60;99.90
23755;DHT22;12057;52.042;6.830;2023-05-16T19:15:23;12.50;99.90
23755;DHT22;12057;52.042;6.830;2023-05-16T19:20:24;12.50;99.90
23755;DHT22;12057;52.042;6.830;2023-05-16T19:25:24;12.50;99.90
23755;DHT22;12057;52.042;6.830;2023-05-16T19:30:26;12.40;99.90
23755;DHT22;12057;52.042;6.830;2023-05-16T19:35:26;12.40;99.90
23755;DHT22;12057;52.042;6.830;2023-05-16T19:40:28;12.40;99.90
23755;DHT22;12057;52.042;6.830;2023-05-16T19:45:29;12.50;99.90
23755;DHT22;12057;52.042;6.830;2023-05-16T19:50:30;12.40;99.90
23755;DHT22;12057;52.042;6.830;2023-05-16T19:55:32;12.30;99.90
23755;DHT22;12057;52.042;6.830;2023-05-16T20:00:35;12.30;99.90
23755;DHT22;12057;52.042;6.830;2023-05-16T20:05:36;12.30;99.90
23755;DHT22;12057;52.042;6.830;2023-05-16T20:10:37;12.30;99.90
23755;DHT22;12057;52.042;6.830;2023-05-16T20:15:38;12.20;99.90
23755;DHT22;12057;52.042;6.830;2023-05-16T20:20:39;12.10;99.90
23755;DHT22;12057;52.042;6.830;2023-05-16T20:25:40;11.80;99.90
23755;DHT22;12057;52.042;6.830;2023-05-16T20:30:41;11.70;99.90
23755;DHT22;12057;52.042;6.830;2023-05-16T20:35:41;11.70;99.90
23755;DHT22;12057;52.042;6.830;2023-05-16T20:40:42;11.60;99.90
23755;DHT22;12057;52.042;6.830;2023-05-16T20:45:43;11.40;99.90
23755;DHT22;12057;52.042;6.830;2023-05-16T20:50:44;11.30;99.90
23755;DHT22;12057;52.042;6.830;2023-05-16T20:55:45;11.20;99.90
23755;DHT22;12057;52.042;6.830;2023-05-16T21:00:46;11.10;99.90
23755;DHT22;12057;52.042;6.830;2023-05-16T21:05:46;11.00;99.90
23755;DHT22;12057;52.042;6.830;2023-05-16T21:10:50;10.80;99.90
23755;DHT22;12057;52.042;6.830;2023-05-16T21:15:51;10.80;99.90
23755;DHT22;12057;52.042;6.830;2023-05-16T21:20:52;10.70;99.90
23755;DHT22;12057;52.042;6.830;2023-05-16T21:25:53;10.70;99.90
23755;DHT22;12057;52.042;6.830;2023-05-16T21:30:53;10.70;99.90
23755;DHT22;12057;52.042;6.830;2023-05-16T21:35:55;10.60;99.90
23755;DHT22;12057;52.042;6.830;2023-05-16T21:40:56;10.60;99.90
23755;DHT22;12057;52.042;6.830;2023-05-16T21:46:02;10.50;99.90
23755;DHT22;12057;52.042;6.830;2023-05-16T21:51:03;10.60;99.90
23755;DHT22;12057;52.042;6.830;2023-05-16T21:56:04;10.60;99.90
23755;DHT22;12057;52.042;6.830;2023-05-16T22:01:05;10.70;99.90
23755;DHT22;12057;52.042;6.830;2023-05-16T22:06:06;10.50;99.90
23755;DHT22;12057;52.042;6.830;2023-05-16T22:11:07;10.40;99.90
23755;DHT22;12057;52.042;6.830;2023-05-16T22:16:08;10.30;99.90
23755;DHT22;12057;52.042;6.830;2023-05-16T22:21:09;10.30;99.90
23755;DHT22;12057;52.042;6.830;2023-05-16T22:26:10;10.20;99.90
23755;DHT22;12057;52.042;6.830;2023-05-16T22:31:11;10.20;99.90
23755;DHT22;12057;52.042;6.830;2023-05-16T22:36:12;10.10;99.90
23755;DHT22;12057;52.042;6.830;2023-05-16T22:41:12;10.10;99.90
23755;DHT22;12057;52.042;6.830;2023-05-16T22:46:13;10.00;99.90
23755;DHT22;12057;52.042;6.830;2023-05-16T22:51:14;9.90;99.90
23755;DHT22;12057;52.042;6.830;2023-05-16T22:56:15;9.70;99.90
23755;DHT22;12057;52.042;6.830;2023-05-16T23:01:16;9.70;99.90
23755;DHT22;12057;52.042;6.830;2023-05-16T23:06:17;9.60;99.90
23755;DHT22;12057;52.042;6.830;2023-05-16T23:11:17;9.50;99.90
23755;DHT22;12057;52.042;6.830;2023-05-16T23:16:19;9.50;99.90
23755;DHT22;12057;52.042;6.830;2023-05-16T23:21:20;9.50;99.90
23755;DHT22;12057;52.042;6.830;2023-05-16T23:26:20;9.40;99.90
23755;DHT22;12057;52.042;6.830;2023-05-16T23:31:21;9.40;99.90
23755;DHT22;12057;52.042;6.830;2023-05-16T23:36:22;9.40;99.90
23755;DHT22;12057;52.042;6.830;2023-05-16T23:41:23;9.40;99.90
23755;DHT22;12057;52.042;6.830;2023-05-16T23:46:23;9.20;99.90
23755;DHT22;12057;52.042;6.830;2023-05-16T23:51:24;9.20;99.90
23755;DHT22;12057;52.042;6.830;2023-05-16T23:56:25;9.20;99.90
